sensor_id;sensor_type;location;lat;lon;timestamp;temperature;humidity
16392;DHT22;8305;-33.882;151.134;2022-12-24T00:00:49;30.80;99.90
16392;DHT22;8305;-33.882;151.134;2022-12-24T00:03:24;30.80;99.90
16392;DHT22;8305;-33.882;151.134;2022-12-24T00:05:55;31.00;99.90
16392;DHT22;8305;-33.882;151.134;2022-12-24T00:08:26;31.00;99.90
16392;DHT22;8305;-33.882;151.134;2022-12-24T00:10:58;31.10;99.90
16392;DHT22;8305;-33.882;151.134;2022-12-24T00:13:29;31.10;99.90
16392;DHT22;8305;-33.882;151.134;2022-12-24T00:16:00;31.10;99.90
16392;DHT22;8305;-33.882;151.134;2022-12-24T00:18:31;31.30;99.90
16392;DHT22;8305;-33.882;151.134;2022-12-24T00:21:02;31.40;99.90
16392;DHT22;8305;-33.882;151.134;2022-12-24T00:23:33;31.40;99.90
16392;DHT22;8305;-33.882;151.134;2022-12-24T00:26:06;31.60;99.90
16392;DHT22;8305;-33.882;151.134;2022-12-24T00:28:37;31.70;99.90
16392;DHT22;8305;-33.882;151.134;2022-12-24T00:31:12;31.80;99.90
16392;DHT22;8305;-33.882;151.134;2022-12-24T00:33:43;32.00;99.90
16392;DHT22;8305;-33.882;151.134;2022-12-24T00:36:14;32.00;99.90
16392;DHT22;8305;-33.882;151.134;2022-12-24T00:38:46;31.90;99.90
16392;DHT22;8305;-33.882;151.134;2022-12-24T00:41:18;32.10;99.90
16392;DHT22;8305;-33.882;151.134;2022-12-24T00:43:56;32.40;99.90
16392;DHT22;8305;-33.882;151.134;2022-12-24T00:46:28;32.70;99.90
16392;DHT22;8305;-33.882;151.134;2022-12-24T00:48:59;32.70;99.90
16392;DHT22;8305;-33.882;151.134;2022-12-24T00:51:31;32.80;99.90
16392;DHT22;8305;-33.882;151.134;2022-12-24T00:54:02;32.80;99.90
16392;DHT22;8305;-33.882;151.134;2022-12-24T00:56:34;32.50;99.90
16392;DHT22;8305;-33.882;151.134;2022-12-24T00:59:05;32.30;99.90
16392;DHT22;8305;-33.882;151.134;2022-12-24T01:01:36;32.30;99.90
16392;DHT22;8305;-33.882;151.134;2022-12-24T01:04:07;32.10;99.90
16392;DHT22;8305;-33.882;151.134;2022-12-24T01:06:53;31.90;99.90
16392;DHT22;8305;-33.882;151.134;2022-12-24T01:09:24;31.80;99.90
16392;DHT22;8305;-33.882;151.134;2022-12-24T01:11:57;31.70;99.90
16392;DHT22;8305;-33.882;151.134;2022-12-24T01:14:28;31.50;99.90
16392;DHT22;8305;-33.882;151.134;2022-12-24T01:16:59;31.20;99.90
16392;DHT22;8305;-33.882;151.134;2022-12-24T01:19:30;31.20;99.90
16392;DHT22;8305;-33.882;151.134;2022-12-24T01:22:02;31.20;99.90
16392;DHT22;8305;-33.882;151.134;2022-12-24T01:24:32;31.40;99.90
16392;DHT22;8305;-33.882;151.134;2022-12-24T01:27:05;31.70;99.90
16392;DHT22;8305;-33.882;151.134;2022-12-24T01:29:36;31.50;99.90
16392;DHT22;8305;-33.882;151.134;2022-12-24T01:32:07;31.60;99.90
16392;DHT22;8305;-33.882;151.134;2022-12-24T01:34:38;31.40;99.90
16392;DHT22;8305;-33.882;151.134;2022-12-24T01:37:09;31.10;99.90
16392;DHT22;8305;-33.882;151.134;2022-12-24T01:39:42;30.90;99.90
16392;DHT22;8305;-33.882;151.134;2022-12-24T01:42:19;31.00;99.90
16392;DHT22;8305;-33.882;151.134;2022-12-24T01:45:43;31.10;99.90
16392;DHT22;8305;-33.882;151.134;2022-12-24T01:48:27;30.90;99.90
16392;DHT22;8305;-33.882;151.134;2022-12-24T01:51:04;30.90;99.90
16392;DHT22;8305;-33.882;151.134;2022-12-24T01:53:37;31.20;99.90
16392;DHT22;8305;-33.882;151.134;2022-12-24T01:56:10;31.00;99.90
16392;DHT22;8305;-33.882;151.134;2022-12-24T01:58:47;31.10;99.90
16392;DHT22;8305;-33.882;151.134;2022-12-24T02:01:20;31.20;99.90
16392;DHT22;8305;-33.882;151.134;2022-12-24T02:03:51;31.20;99.90
16392;DHT22;8305;-33.882;151.134;2022-12-24T02:06:22;31.20;99.90
16392;DHT22;8305;-33.882;151.134;2022-12-24T02:08:53;31.50;99.90
16392;DHT22;8305;-33.882;151.134;2022-12-24T02:11:24;31.50;99.90
16392;DHT22;8305;-33.882;151.134;2022-12-24T02:13:59;31.50;99.90
16392;DHT22;8305;-33.882;151.134;2022-12-24T02:16:37;31.20;99.90
16392;DHT22;8305;-33.882;151.134;2022-12-24T02:22:08;30.90;99.90
16392;DHT22;8305;-33.882;151.134;2022-12-24T02:25:10;30.80;99.90
16392;DHT22;8305;-33.882;151.134;2022-12-24T02:27:54;31.20;99.90
16392;DHT22;8305;-33.882;151.134;2022-12-24T02:30:31;31.30;99.90
16392;DHT22;8305;-33.882;151.134;2022-12-24T02:33:23;31.40;99.90
16392;DHT22;8305;-33.882;151.134;2022-12-24T02:35:59;31.20;99.90
16392;DHT22;8305;-33.882;151.134;2022-12-24T02:38:33;31.20;99.90
16392;DHT22;8305;-33.882;151.134;2022-12-24T02:41:10;31.00;99.90
16392;DHT22;8305;-33.882;151.134;2022-12-24T02:43:44;31.00;99.90
16392;DHT22;8305;-33.882;151.134;2022-12-24T02:46:19;31.10;99.90
16392;DHT22;8305;-33.882;151.134;2022-12-24T02:48:51;31.20;99.90
16392;DHT22;8305;-33.882;151.134;2022-12-24T02:51:23;31.20;99.90
16392;DHT22;8305;-33.882;151.134;2022-12-24T02:53:54;31.10;99.90
16392;DHT22;8305;-33.882;151.134;2022-12-24T02:56:53;31.10;99.90
16392;DHT22;8305;-33.882;151.134;2022-12-24T02:59:58;30.90;99.90
16392;DHT22;8305;-33.882;151.134;2022-12-24T03:02:46;30.70;99.90
16392;DHT22;8305;-33.882;151.134;2022-12-24T03:05:23;30.80;99.90
16392;DHT22;8305;-33.882;151.134;2022-12-24T03:08:00;30.80;99.90
16392;DHT22;8305;-33.882;151.134;2022-12-24T03:10:38;31.00;99.90
16392;DHT22;8305;-33.882;151.134;2022-12-24T03:13:14;30.80;99.90
16392;DHT22;8305;-33.882;151.134;2022-12-24T03:15:46;30.80;99.90
16392;DHT22;8305;-33.882;151.134;2022-12-24T03:18:21;30.80;99.90
16392;DHT22;8305;-33.882;151.134;2022-12-24T03:20:57;31.00;99.90
16392;DHT22;8305;-33.882;151.134;2022-12-24T03:23:30;30.90;99.90
16392;DHT22;8305;-33.882;151.134;2022-12-24T03:26:03;30.60;99.90
16392;DHT22;8305;-33.882;151.134;2022-12-24T03:28:36;30.20;99.90
16392;DHT22;8305;-33.882;151.134;2022-12-24T03:31:09;30.00;99.90
16392;DHT22;8305;-33.882;151.134;2022-12-24T03:33:41;30.10;99.90
16392;DHT22;8305;-33.882;151.134;2022-12-24T03:36:12;30.10;99.90
16392;DHT22;8305;-33.882;151.134;2022-12-24T03:38:43;30.10;99.90
16392;DHT22;8305;-33.882;151.134;2022-12-24T03:41:14;30.00;99.90
16392;DHT22;8305;-33.882;151.134;2022-12-24T03:43:44;30.00;99.90
16392;DHT22;8305;-33.882;151.134;2022-12-24T03:46:15;30.00;99.90
16392;DHT22;8305;-33.882;151.134;2022-12-24T03:48:48;30.00;99.90
16392;DHT22;8305;-33.882;151.134;2022-12-24T03:51:20;29.70;99.90
16392;DHT22;8305;-33.882;151.134;2022-12-24T03:53:52;29.70;99.90
16392;DHT22;8305;-33.882;151.134;2022-12-24T03:56:23;29.80;99.90
16392;DHT22;8305;-33.882;151.134;2022-12-24T03:58:53;29.60;99.90
16392;DHT22;8305;-33.882;151.134;2022-12-24T04:01:24;29.70;99.90
16392;DHT22;8305;-33.882;151.134;2022-12-24T04:03:57;29.40;99.90
16392;DHT22;8305;-33.882;151.134;2022-12-24T04:06:28;29.40;99.90
16392;DHT22;8305;-33.882;151.134;2022-12-24T04:08:58;29.40;99.90
16392;DHT22;8305;-33.882;151.134;2022-12-24T04:11:32;29.40;99.90
16392;DHT22;8305;-33.882;151.134;2022-12-24T04:14:02;29.60;99.90
16392;DHT22;8305;-33.882;151.134;2022-12-24T04:16:33;29.70;99.90
16392;DHT22;8305;-33.882;151.134;2022-12-24T04:19:06;29.60;99.90
16392;DHT22;8305;-33.882;151.134;2022-12-24T04:21:37;29.50;99.90
16392;DHT22;8305;-33.882;151.134;2022-12-24T04:24:07;29.50;99.90
16392;DHT22;8305;-33.882;151.134;2022-12-24T04:26:38;29.40;99.90
16392;DHT22;8305;-33.882;151.134;2022-12-24T04:29:09;29.40;99.90
16392;DHT22;8305;-33.882;151.134;2022-12-24T04:31:40;29.50;99.90
16392;DHT22;8305;-33.882;151.134;2022-12-24T04:34:12;29.60;99.90
16392;DHT22;8305;-33.882;151.134;2022-12-24T04:36:44;29.60;99.90
16392;DHT22;8305;-33.882;151.134;2022-12-24T04:39:14;29.70;99.90
16392;DHT22;8305;-33.882;151.134;2022-12-24T04:41:45;29.80;99.90
16392;DHT22;8305;-33.882;151.134;2022-12-24T04:44:16;29.80;99.90
16392;DHT22;8305;-33.882;151.134;2022-12-24T04:46:47;29.80;99.90
16392;DHT22;8305;-33.882;151.134;2022-12-24T04:49:20;29.80;99.90
16392;DHT22;8305;-33.882;151.134;2022-12-24T04:51:50;29.80;99.90
16392;DHT22;8305;-33.882;151.134;2022-12-24T04:54:21;29.60;99.90
16392;DHT22;8305;-33.882;151.134;2022-12-24T04:56:52;29.50;99.90
16392;DHT22;8305;-33.882;151.134;2022-12-24T04:59:23;29.40;99.90
16392;DHT22;8305;-33.882;151.134;2022-12-24T05:01:54;29.30;99.90
16392;DHT22;8305;-33.882;151.134;2022-12-24T05:04:26;29.20;99.90
16392;DHT22;8305;-33.882;151.134;2022-12-24T05:06:57;29.30;99.90
16392;DHT22;8305;-33.882;151.134;2022-12-24T05:09:31;29.20;99.90
16392;DHT22;8305;-33.882;151.134;2022-12-24T05:12:02;29.10;99.90
16392;DHT22;8305;-33.882;151.134;2022-12-24T05:14:33;29.00;99.90
16392;DHT22;8305;-33.882;151.134;2022-12-24T05:17:03;29.00;99.90
16392;DHT22;8305;-33.882;151.134;2022-12-24T05:19:36;28.90;99.90
16392;DHT22;8305;-33.882;151.134;2022-12-24T05:22:07;28.90;99.90
16392;DHT22;8305;-33.882;151.134;2022-12-24T05:24:53;28.80;99.90
16392;DHT22;8305;-33.882;151.134;2022-12-24T05:27:40;28.70;99.90
16392;DHT22;8305;-33.882;151.134;2022-12-24T05:30:11;28.80;99.90
16392;DHT22;8305;-33.882;151.134;2022-12-24T05:32:42;28.90;99.90
16392;DHT22;8305;-33.882;151.134;2022-12-24T05:35:15;29.00;99.90
16392;DHT22;8305;-33.882;151.134;2022-12-24T05:37:45;29.10;99.90
16392;DHT22;8305;-33.882;151.134;2022-12-24T05:40:16;29.10;99.90
16392;DHT22;8305;-33.882;151.134;2022-12-24T05:42:47;29.10;99.90
16392;DHT22;8305;-33.882;151.134;2022-12-24T05:45:19;29.00;99.90
16392;DHT22;8305;-33.882;151.134;2022-12-24T05:47:50;29.10;99.90
16392;DHT22;8305;-33.882;151.134;2022-12-24T05:50:22;29.10;99.90
16392;DHT22;8305;-33.882;151.134;2022-12-24T05:52:53;29.10;99.90
16392;DHT22;8305;-33.882;151.134;2022-12-24T05:55:24;29.00;99.90
16392;DHT22;8305;-33.882;151.134;2022-12-24T05:57:55;29.00;99.90
16392;DHT22;8305;-33.882;151.134;2022-12-24T06:00:26;28.90;99.90
16392;DHT22;8305;-33.882;151.134;2022-12-24T06:02:57;28.90;99.90
16392;DHT22;8305;-33.882;151.134;2022-12-24T06:05:30;28.90;99.90
16392;DHT22;8305;-33.882;151.134;2022-12-24T06:08:00;29.00;99.90
16392;DHT22;8305;-33.882;151.134;2022-12-24T06:10:31;29.10;99.90
16392;DHT22;8305;-33.882;151.134;2022-12-24T06:13:02;29.10;99.90
16392;DHT22;8305;-33.882;151.134;2022-12-24T06:15:34;29.10;99.90
16392;DHT22;8305;-33.882;151.134;2022-12-24T06:18:05;29.10;99.90
16392;DHT22;8305;-33.882;151.134;2022-12-24T06:20:38;29.00;99.90
16392;DHT22;8305;-33.882;151.134;2022-12-24T06:23:09;29.00;99.90
16392;DHT22;8305;-33.882;151.134;2022-12-24T06:25:39;29.10;99.90
16392;DHT22;8305;-33.882;151.134;2022-12-24T06:28:10;29.10;99.90
16392;DHT22;8305;-33.882;151.134;2022-12-24T06:30:44;29.10;99.90
16392;DHT22;8305;-33.882;151.134;2022-12-24T06:33:17;29.10;99.90
16392;DHT22;8305;-33.882;151.134;2022-12-24T06:35:52;29.10;99.90
16392;DHT22;8305;-33.882;151.134;2022-12-24T06:38:23;29.10;99.90
16392;DHT22;8305;-33.882;151.134;2022-12-24T06:40:54;29.20;99.90
16392;DHT22;8305;-33.882;151.134;2022-12-24T06:43:25;29.20;99.90
16392;DHT22;8305;-33.882;151.134;2022-12-24T06:45:56;29.10;99.90
16392;DHT22;8305;-33.882;151.134;2022-12-24T06:48:27;29.10;99.90
16392;DHT22;8305;-33.882;151.134;2022-12-24T06:51:01;29.10;99.90
16392;DHT22;8305;-33.882;151.134;2022-12-24T06:53:32;29.00;99.90
16392;DHT22;8305;-33.882;151.134;2022-12-24T06:56:04;29.00;99.90
16392;DHT22;8305;-33.882;151.134;2022-12-24T06:58:36;29.00;99.90
16392;DHT22;8305;-33.882;151.134;2022-12-24T07:01:08;29.00;99.90
16392;DHT22;8305;-33.882;151.134;2022-12-24T07:03:39;29.00;99.90
16392;DHT22;8305;-33.882;151.134;2022-12-24T07:06:17;29.00;99.90
16392;DHT22;8305;-33.882;151.134;2022-12-24T07:08:48;29.00;99.90
16392;DHT22;8305;-33.882;151.134;2022-12-24T07:11:22;29.00;99.90
16392;DHT22;8305;-33.882;151.134;2022-12-24T07:13:53;29.00;99.90
16392;DHT22;8305;-33.882;151.134;2022-12-24T07:16:24;29.00;99.90
16392;DHT22;8305;-33.882;151.134;2022-12-24T07:18:55;28.90;99.90
16392;DHT22;8305;-33.882;151.134;2022-12-24T07:21:27;28.90;99.90
16392;DHT22;8305;-33.882;151.134;2022-12-24T07:23:58;29.00;99.90
16392;DHT22;8305;-33.882;151.134;2022-12-24T07:26:29;29.00;99.90
16392;DHT22;8305;-33.882;151.134;2022-12-24T07:29:00;29.10;99.90
16392;DHT22;8305;-33.882;151.134;2022-12-24T07:31:31;29.00;99.90
16392;DHT22;8305;-33.882;151.134;2022-12-24T07:34:02;29.00;99.90
16392;DHT22;8305;-33.882;151.134;2022-12-24T07:36:34;28.90;99.90
16392;DHT22;8305;-33.882;151.134;2022-12-24T07:39:05;28.90;99.90
16392;DHT22;8305;-33.882;151.134;2022-12-24T07:41:36;28.80;99.90
16392;DHT22;8305;-33.882;151.134;2022-12-24T07:44:07;28.70;99.90
16392;DHT22;8305;-33.882;151.134;2022-12-24T07:46:42;28.50;99.90
16392;DHT22;8305;-33.882;151.134;2022-12-24T07:49:14;28.40;99.90
16392;DHT22;8305;-33.882;151.134;2022-12-24T07:51:47;28.30;99.90
16392;DHT22;8305;-33.882;151.134;2022-12-24T07:54:18;28.20;99.90
16392;DHT22;8305;-33.882;151.134;2022-12-24T07:56:48;28.10;99.90
16392;DHT22;8305;-33.882;151.134;2022-12-24T07:59:20;28.00;99.90
16392;DHT22;8305;-33.882;151.134;2022-12-24T08:01:51;27.90;99.90
16392;DHT22;8305;-33.882;151.134;2022-12-24T08:04:22;27.90;99.90
16392;DHT22;8305;-33.882;151.134;2022-12-24T08:06:55;27.90;99.90
16392;DHT22;8305;-33.882;151.134;2022-12-24T08:09:25;27.90;99.90
16392;DHT22;8305;-33.882;151.134;2022-12-24T08:11:56;27.80;99.90
16392;DHT22;8305;-33.882;151.134;2022-12-24T08:14:27;27.70;99.90
16392;DHT22;8305;-33.882;151.134;2022-12-24T08:16:58;27.60;99.90
16392;DHT22;8305;-33.882;151.134;2022-12-24T08:19:29;27.50;99.90
16392;DHT22;8305;-33.882;151.134;2022-12-24T08:22:01;27.50;99.90
16392;DHT22;8305;-33.882;151.134;2022-12-24T08:24:34;27.40;99.90
16392;DHT22;8305;-33.882;151.134;2022-12-24T08:27:07;27.30;99.90
16392;DHT22;8305;-33.882;151.134;2022-12-24T08:29:38;27.20;99.90
16392;DHT22;8305;-33.882;151.134;2022-12-24T08:32:09;27.10;99.90
16392;DHT22;8305;-33.882;151.134;2022-12-24T08:34:40;27.10;99.90
16392;DHT22;8305;-33.882;151.134;2022-12-24T08:37:12;27.00;99.90
16392;DHT22;8305;-33.882;151.134;2022-12-24T08:39:46;26.90;99.90
16392;DHT22;8305;-33.882;151.134;2022-12-24T08:42:16;26.80;99.90
16392;DHT22;8305;-33.882;151.134;2022-12-24T08:44:47;26.60;99.90
16392;DHT22;8305;-33.882;151.134;2022-12-24T08:47:18;26.50;99.90
16392;DHT22;8305;-33.882;151.134;2022-12-24T08:49:49;26.40;99.90
16392;DHT22;8305;-33.882;151.134;2022-12-24T08:52:22;26.20;99.90
16392;DHT22;8305;-33.882;151.134;2022-12-24T08:54:52;26.10;99.90
16392;DHT22;8305;-33.882;151.134;2022-12-24T08:57:23;26.10;99.90
16392;DHT22;8305;-33.882;151.134;2022-12-24T08:59:54;26.00;99.90
16392;DHT22;8305;-33.882;151.134;2022-12-24T09:02:25;25.90;99.90
16392;DHT22;8305;-33.882;151.134;2022-12-24T09:04:55;25.80;99.90
16392;DHT22;8305;-33.882;151.134;2022-12-24T09:07:28;25.70;99.90
16392;DHT22;8305;-33.882;151.134;2022-12-24T09:09:59;25.60;99.90
16392;DHT22;8305;-33.882;151.134;2022-12-24T09:12:30;25.60;99.90
16392;DHT22;8305;-33.882;151.134;2022-12-24T09:15:01;25.40;99.90
16392;DHT22;8305;-33.882;151.134;2022-12-24T09:17:34;25.40;99.90
16392;DHT22;8305;-33.882;151.134;2022-12-24T09:20:06;25.40;99.90
16392;DHT22;8305;-33.882;151.134;2022-12-24T09:22:39;25.30;99.90
16392;DHT22;8305;-33.882;151.134;2022-12-24T09:25:10;25.20;99.90
16392;DHT22;8305;-33.882;151.134;2022-12-24T09:27:41;25.20;99.90
16392;DHT22;8305;-33.882;151.134;2022-12-24T09:30:13;25.10;99.90
16392;DHT22;8305;-33.882;151.134;2022-12-24T09:32:44;25.10;99.90
16392;DHT22;8305;-33.882;151.134;2022-12-24T09:35:14;25.00;99.90
16392;DHT22;8305;-33.882;151.134;2022-12-24T09:37:47;25.00;99.90
16392;DHT22;8305;-33.882;151.134;2022-12-24T09:40:34;24.90;99.90
16392;DHT22;8305;-33.882;151.134;2022-12-24T09:43:12;24.80;99.90
16392;DHT22;8305;-33.882;151.134;2022-12-24T09:45:51;24.80;99.90
16392;DHT22;8305;-33.882;151.134;2022-12-24T09:48:27;24.80;99.90
16392;DHT22;8305;-33.882;151.134;2022-12-24T09:51:03;24.70;99.90
16392;DHT22;8305;-33.882;151.134;2022-12-24T09:53:41;24.60;99.90
16392;DHT22;8305;-33.882;151.134;2022-12-24T09:56:16;24.60;99.90
16392;DHT22;8305;-33.882;151.134;2022-12-24T09:58:50;24.60;99.90
16392;DHT22;8305;-33.882;151.134;2022-12-24T10:01:22;24.50;99.90
16392;DHT22;8305;-33.882;151.134;2022-12-24T10:03:53;24.50;99.90
16392;DHT22;8305;-33.882;151.134;2022-12-24T10:06:26;24.50;99.90
16392;DHT22;8305;-33.882;151.134;2022-12-24T10:09:10;24.50;99.90
16392;DHT22;8305;-33.882;151.134;2022-12-24T10:11:48;24.50;99.90
16392;DHT22;8305;-33.882;151.134;2022-12-24T10:14:31;24.40;99.90
16392;DHT22;8305;-33.882;151.134;2022-12-24T10:20:32;24.40;99.90
16392;DHT22;8305;-33.882;151.134;2022-12-24T10:23:10;24.30;99.90
16392;DHT22;8305;-33.882;151.134;2022-12-24T10:25:49;24.30;99.90
16392;DHT22;8305;-33.882;151.134;2022-12-24T10:28:27;24.30;99.90
16392;DHT22;8305;-33.882;151.134;2022-12-24T10:31:04;24.30;99.90
16392;DHT22;8305;-33.882;151.134;2022-12-24T10:33:40;24.30;99.90
16392;DHT22;8305;-33.882;151.134;2022-12-24T10:36:15;24.20;99.90
16392;DHT22;8305;-33.882;151.134;2022-12-24T10:38:47;24.20;99.90
16392;DHT22;8305;-33.882;151.134;2022-12-24T10:41:20;24.20;99.90
16392;DHT22;8305;-33.882;151.134;2022-12-24T10:43:51;24.10;99.90
16392;DHT22;8305;-33.882;151.134;2022-12-24T10:46:23;24.10;99.90
16392;DHT22;8305;-33.882;151.134;2022-12-24T10:48:59;24.10;99.90
16392;DHT22;8305;-33.882;151.134;2022-12-24T10:51:36;24.00;99.90
16392;DHT22;8305;-33.882;151.134;2022-12-24T10:54:12;24.00;99.90
16392;DHT22;8305;-33.882;151.134;2022-12-24T10:56:47;24.00;99.90
16392;DHT22;8305;-33.882;151.134;2022-12-24T10:59:26;24.00;99.90
16392;DHT22;8305;-33.882;151.134;2022-12-24T11:01:59;24.00;99.90
16392;DHT22;8305;-33.882;151.134;2022-12-24T11:04:30;23.90;99.90
16392;DHT22;8305;-33.882;151.134;2022-12-24T11:07:03;23.90;99.90
16392;DHT22;8305;-33.882;151.134;2022-12-24T11:09:34;23.90;99.90
16392;DHT22;8305;-33.882;151.134;2022-12-24T11:12:18;23.90;99.90
16392;DHT22;8305;-33.882;151.134;2022-12-24T11:15:00;23.90;99.90
16392;DHT22;8305;-33.882;151.134;2022-12-24T11:17:31;23.90;99.90
16392;DHT22;8305;-33.882;151.134;2022-12-24T11:20:02;23.90;99.90
16392;DHT22;8305;-33.882;151.134;2022-12-24T11:22:33;23.90;99.90
16392;DHT22;8305;-33.882;151.134;2022-12-24T11:25:06;23.90;99.90
16392;DHT22;8305;-33.882;151.134;2022-12-24T11:27:44;23.90;99.90
16392;DHT22;8305;-33.882;151.134;2022-12-24T11:30:29;23.90;99.90
16392;DHT22;8305;-33.882;151.134;2022-12-24T11:33:20;23.80;99.90
16392;DHT22;8305;-33.882;151.134;2022-12-24T11:35:53;23.80;99.90
16392;DHT22;8305;-33.882;151.134;2022-12-24T11:38:26;23.80;99.90
16392;DHT22;8305;-33.882;151.134;2022-12-24T11:41:00;23.80;99.90
16392;DHT22;8305;-33.882;151.134;2022-12-24T11:43:41;23.80;99.90
16392;DHT22;8305;-33.882;151.134;2022-12-24T11:46:20;23.80;99.90
16392;DHT22;8305;-33.882;151.134;2022-12-24T11:49:05;23.80;99.90
16392;DHT22;8305;-33.882;151.134;2022-12-24T11:55:06;23.80;99.90
16392;DHT22;8305;-33.882;151.134;2022-12-24T11:57:50;23.70;99.90
16392;DHT22;8305;-33.882;151.134;2022-12-24T12:00:24;23.60;99.90
16392;DHT22;8305;-33.882;151.134;2022-12-24T12:02:58;23.40;99.90
16392;DHT22;8305;-33.882;151.134;2022-12-24T12:05:32;23.30;99.90
16392;DHT22;8305;-33.882;151.134;2022-12-24T12:08:12;23.20;99.90
16392;DHT22;8305;-33.882;151.134;2022-12-24T12:10:45;23.10;99.90
16392;DHT22;8305;-33.882;151.134;2022-12-24T12:13:19;22.90;99.90
16392;DHT22;8305;-33.882;151.134;2022-12-24T12:16:06;22.80;99.90
16392;DHT22;8305;-33.882;151.134;2022-12-24T12:18:39;22.80;99.90
16392;DHT22;8305;-33.882;151.134;2022-12-24T12:21:13;22.70;99.90
16392;DHT22;8305;-33.882;151.134;2022-12-24T12:23:48;22.70;99.90
16392;DHT22;8305;-33.882;151.134;2022-12-24T12:26:23;22.70;99.90
16392;DHT22;8305;-33.882;151.134;2022-12-24T12:28:57;22.60;99.90
16392;DHT22;8305;-33.882;151.134;2022-12-24T12:31:33;22.60;99.90
16392;DHT22;8305;-33.882;151.134;2022-12-24T12:34:09;22.60;99.90
16392;DHT22;8305;-33.882;151.134;2022-12-24T12:36:45;22.60;99.90
16392;DHT22;8305;-33.882;151.134;2022-12-24T12:39:17;22.60;99.90
16392;DHT22;8305;-33.882;151.134;2022-12-24T12:41:53;22.50;99.90
16392;DHT22;8305;-33.882;151.134;2022-12-24T12:44:47;22.50;99.90
16392;DHT22;8305;-33.882;151.134;2022-12-24T12:47:55;22.40;99.90
16392;DHT22;8305;-33.882;151.134;2022-12-24T12:50:32;22.40;99.90
16392;DHT22;8305;-33.882;151.134;2022-12-24T12:53:22;22.40;99.90
16392;DHT22;8305;-33.882;151.134;2022-12-24T12:56:00;22.30;99.90
16392;DHT22;8305;-33.882;151.134;2022-12-24T12:58:38;22.40;99.90
16392;DHT22;8305;-33.882;151.134;2022-12-24T13:01:16;22.30;99.90
16392;DHT22;8305;-33.882;151.134;2022-12-24T13:04:34;22.20;99.90
16392;DHT22;8305;-33.882;151.134;2022-12-24T13:13:38;22.00;99.90
16392;DHT22;8305;-33.882;151.134;2022-12-24T13:19:22;22.00;99.90
16392;DHT22;8305;-33.882;151.134;2022-12-24T13:21:55;21.90;99.90
16392;DHT22;8305;-33.882;151.134;2022-12-24T13:24:27;21.90;99.90
16392;DHT22;8305;-33.882;151.134;2022-12-24T13:27:01;21.80;99.90
16392;DHT22;8305;-33.882;151.134;2022-12-24T13:29:45;21.90;99.90
16392;DHT22;8305;-33.882;151.134;2022-12-24T13:32:51;21.80;99.90
16392;DHT22;8305;-33.882;151.134;2022-12-24T13:35:35;21.80;99.90
16392;DHT22;8305;-33.882;151.134;2022-12-24T13:38:33;21.80;99.90
16392;DHT22;8305;-33.882;151.134;2022-12-24T13:41:37;21.80;99.90
16392;DHT22;8305;-33.882;151.134;2022-12-24T13:44:21;21.80;99.90
16392;DHT22;8305;-33.882;151.134;2022-12-24T13:46:54;21.70;99.90
16392;DHT22;8305;-33.882;151.134;2022-12-24T13:49:33;21.70;99.90
16392;DHT22;8305;-33.882;151.134;2022-12-24T13:52:22;21.70;99.90
16392;DHT22;8305;-33.882;151.134;2022-12-24T13:55:16;21.70;99.90
16392;DHT22;8305;-33.882;151.134;2022-12-24T13:57:54;21.60;99.90
16392;DHT22;8305;-33.882;151.134;2022-12-24T14:00:38;21.60;99.90
16392;DHT22;8305;-33.882;151.134;2022-12-24T14:03:26;21.60;99.90
16392;DHT22;8305;-33.882;151.134;2022-12-24T14:06:00;21.50;99.90
16392;DHT22;8305;-33.882;151.134;2022-12-24T14:08:37;21.50;99.90
16392;DHT22;8305;-33.882;151.134;2022-12-24T14:11:11;21.40;99.90
16392;DHT22;8305;-33.882;151.134;2022-12-24T14:13:53;21.40;99.90
16392;DHT22;8305;-33.882;151.134;2022-12-24T14:16:26;21.40;99.90
16392;DHT22;8305;-33.882;151.134;2022-12-24T14:19:00;21.40;99.90
16392;DHT22;8305;-33.882;151.134;2022-12-24T14:21:34;21.40;99.90
16392;DHT22;8305;-33.882;151.134;2022-12-24T14:24:14;21.40;99.90
16392;DHT22;8305;-33.882;151.134;2022-12-24T14:26:49;21.40;99.90
16392;DHT22;8305;-33.882;151.134;2022-12-24T14:29:26;21.40;99.90
16392;DHT22;8305;-33.882;151.134;2022-12-24T14:32:07;21.30;99.90
16392;DHT22;8305;-33.882;151.134;2022-12-24T14:34:41;21.30;99.90
16392;DHT22;8305;-33.882;151.134;2022-12-24T14:37:13;21.20;99.90
16392;DHT22;8305;-33.882;151.134;2022-12-24T14:39:48;21.20;99.90
16392;DHT22;8305;-33.882;151.134;2022-12-24T14:42:33;21.20;99.90
16392;DHT22;8305;-33.882;151.134;2022-12-24T14:45:17;21.10;99.90
16392;DHT22;8305;-33.882;151.134;2022-12-24T14:47:58;21.10;99.90
16392;DHT22;8305;-33.882;151.134;2022-12-24T14:53:35;21.00;99.90
16392;DHT22;8305;-33.882;151.134;2022-12-24T14:56:19;20.90;99.90
16392;DHT22;8305;-33.882;151.134;2022-12-24T14:58:50;20.90;99.90
16392;DHT22;8305;-33.882;151.134;2022-12-24T15:01:23;20.90;99.90
16392;DHT22;8305;-33.882;151.134;2022-12-24T15:04:04;20.90;99.90
16392;DHT22;8305;-33.882;151.134;2022-12-24T15:06:45;20.80;99.90
16392;DHT22;8305;-33.882;151.134;2022-12-24T15:09:20;20.80;99.90
16392;DHT22;8305;-33.882;151.134;2022-12-24T15:11:55;20.80;99.90
16392;DHT22;8305;-33.882;151.134;2022-12-24T15:14:27;20.80;99.90
16392;DHT22;8305;-33.882;151.134;2022-12-24T15:17:00;20.80;99.90
16392;DHT22;8305;-33.882;151.134;2022-12-24T15:19:33;20.70;99.90
16392;DHT22;8305;-33.882;151.134;2022-12-24T15:22:08;20.70;99.90
16392;DHT22;8305;-33.882;151.134;2022-12-24T15:24:45;20.70;99.90
16392;DHT22;8305;-33.882;151.134;2022-12-24T15:27:19;20.60;99.90
16392;DHT22;8305;-33.882;151.134;2022-12-24T15:29:52;20.70;99.90
16392;DHT22;8305;-33.882;151.134;2022-12-24T15:32:23;20.60;99.90
16392;DHT22;8305;-33.882;151.134;2022-12-24T15:34:54;20.60;99.90
16392;DHT22;8305;-33.882;151.134;2022-12-24T15:37:28;20.60;99.90
16392;DHT22;8305;-33.882;151.134;2022-12-24T15:40:07;20.60;99.90
16392;DHT22;8305;-33.882;151.134;2022-12-24T15:42:44;20.60;99.90
16392;DHT22;8305;-33.882;151.134;2022-12-24T15:45:17;20.60;99.90
16392;DHT22;8305;-33.882;151.134;2022-12-24T15:47:50;20.50;99.90
16392;DHT22;8305;-33.882;151.134;2022-12-24T15:50:27;20.50;99.90
16392;DHT22;8305;-33.882;151.134;2022-12-24T15:53:02;20.50;99.90
16392;DHT22;8305;-33.882;151.134;2022-12-24T15:55:37;20.50;99.90
16392;DHT22;8305;-33.882;151.134;2022-12-24T15:58:22;20.50;99.90
16392;DHT22;8305;-33.882;151.134;2022-12-24T16:01:01;20.50;99.90
16392;DHT22;8305;-33.882;151.134;2022-12-24T16:03:33;20.50;99.90
16392;DHT22;8305;-33.882;151.134;2022-12-24T16:06:05;20.50;99.90
16392;DHT22;8305;-33.882;151.134;2022-12-24T16:08:36;20.50;99.90
16392;DHT22;8305;-33.882;151.134;2022-12-24T16:11:15;20.50;99.90